Time;durP1;ratioP1;P1;durP2;ratioP2;P2;SDS_P1;SDS_P2;PMS_P1;PMS_P2;Temp;Humidity;BMP_temperature;BMP_pressure;BME280_temperature;BME280_humidity;BME280_pressure;Samples;Min_cycle;Max_cycle;Signal;HPM_P1;HPM_P2
2024/02/09 00:00:05;;;;;;;;;;;;;;;7.21;100.00;98435.69;5029943;28;19970;-74
2024/02/09 00:02:31;;;;;;;;;;;;;;;7.19;100.00;98421.72;5033984;28;20017;-74
2024/02/09 00:04:59;;;;;;;;;;;;;;;7.21;100.00;98422.28;5032076;28;20062;-74
2024/02/09 00:07:24;;;;;;;;;;;;;;;7.16;100.00;98416.81;5027407;28;19932;-75
2024/02/09 00:09:49;;;;;;;;;;;;;;;7.16;100.00;98414.16;5030863;28;20254;-74
2024/02/09 00:12:16;;;;;;;;;;;;;;;7.20;100.00;98413.44;5031739;28;20298;-74
2024/02/09 00:14:44;;;;;;;;;;;;;;;7.27;100.00;98407.97;5035201;28;19921;-74
2024/02/09 00:17:09;;;;;;;;;;;;;;;7.26;100.00;98411.69;5025777;28;19925;-74
2024/02/09 00:19:34;;;;;;;;;;;;;;;7.28;100.00;98404.22;5034220;28;19976;-75
2024/02/09 00:21:59;;;;;;;;;;;;;;;7.33;100.00;98401.66;5045890;28;19932;-74
2024/02/09 00:24:25;;;;;;;;;;;;;;;7.33;100.00;98390.97;5037785;28;19921;-75
2024/02/09 00:26:50;;;;;;;;;;;;;;;7.31;100.00;98382.34;5032703;28;19928;-74
2024/02/09 00:29:15;;;;;;;;;;;;;;;7.34;100.00;98381.88;5034903;28;19971;-74
2024/02/09 00:31:45;;;;;;;;;;;;;;;7.34;100.00;98373.03;5032551;28;19921;-74
2024/02/09 00:34:17;;;;;;;;;;;;;;;7.35;100.00;98374.66;5034238;28;19947;-74
2024/02/09 00:36:44;;;;;;;;;;;;;;;7.34;100.00;98368.50;5035612;28;19976;-74
2024/02/09 00:39:09;;;;;;;;;;;;;;;7.42;100.00;98360.09;5032517;28;19921;-74
2024/02/09 00:41:34;;;;;;;;;;;;;;;7.37;100.00;98362.69;5038895;28;20012;-74
2024/02/09 00:43:59;;;;;;;;;;;;;;;7.42;100.00;98364.63;5049855;28;20013;-74
2024/02/09 00:46:28;;;;;;;;;;;;;;;7.46;100.00;98360.44;5047040;28;20067;-75
2024/02/09 00:48:53;;;;;;;;;;;;;;;7.43;100.00;98358.25;5045038;28;20296;-75
2024/02/09 00:51:18;;;;;;;;;;;;;;;7.40;100.00;98353.34;5046331;28;19921;-74
2024/02/09 00:53:44;;;;;;;;;;;;;;;7.54;100.00;98343.19;5039171;28;19932;-75
2024/02/09 00:56:10;;;;;;;;;;;;;;;7.51;100.00;98340.97;5040928;28;21810;-75
2024/02/09 00:58:36;;;;;;;;;;;;;;;7.51;100.00;98338.31;5033746;28;20028;-75
2024/02/09 01:01:01;;;;;;;;;;;;;;;7.55;100.00;98323.41;5031325;28;20023;-75
2024/02/09 01:03:26;;;;;;;;;;;;;;;7.59;100.00;98319.16;5034722;28;20381;-75
2024/02/09 01:05:51;;;;;;;;;;;;;;;7.58;100.00;98322.91;5040611;28;19928;-75
2024/02/09 01:08:18;;;;;;;;;;;;;;;7.63;100.00;98319.53;5037652;28;19921;-74
2024/02/09 01:10:43;;;;;;;;;;;;;;;7.66;100.00;98321.72;5048172;28;20358;-75
2024/02/09 02:45:48;;;;;;;;;;;;;;;7.78;100.00;98180.53;5036765;28;20293;-78
2024/02/09 03:04:38;;;;;;;;;;;;;;;7.78;100.00;98140.34;5037444;28;20280;-78
2024/02/09 03:07:03;;;;;;;;;;;;;;;7.79;100.00;98135.78;5038080;28;19921;-78
2024/02/09 03:09:29;;;;;;;;;;;;;;;7.85;100.00;98148.22;5050275;28;19927;-79
2024/02/09 03:11:57;;;;;;;;;;;;;;;7.83;100.00;98142.28;5030968;28;21666;-77
2024/02/09 03:14:23;;;;;;;;;;;;;;;7.81;100.00;98139.03;5029771;28;19928;-78
2024/02/09 03:16:48;;;;;;;;;;;;;;;7.81;100.00;98131.81;5039028;28;19925;-77
2024/02/09 03:19:14;;;;;;;;;;;;;;;7.78;100.00;98128.81;5041771;28;19932;-78
2024/02/09 03:21:40;;;;;;;;;;;;;;;7.71;100.00;98127.13;5034305;28;20015;-78
2024/02/09 03:24:05;;;;;;;;;;;;;;;7.72;100.00;98125.25;5056485;28;19963;-78
2024/02/09 03:26:31;;;;;;;;;;;;;;;7.73;100.00;98125.03;5057457;28;19931;-77
2024/02/09 03:28:56;;;;;;;;;;;;;;;7.76;100.00;98115.69;5038862;28;19939;-77
2024/02/09 03:31:24;;;;;;;;;;;;;;;7.79;100.00;98114.38;5042825;28;19928;-77
2024/02/09 03:33:52;;;;;;;;;;;;;;;7.80;100.00;98116.00;5035735;28;19921;-77
2024/02/09 03:36:20;;;;;;;;;;;;;;;7.78;100.00;98110.88;5044491;28;19925;-77
2024/02/09 03:38:45;;;;;;;;;;;;;;;7.80;100.00;98116.00;5049405;28;19927;-77
2024/02/09 03:41:12;;;;;;;;;;;;;;;7.74;100.00;98112.44;5050509;28;20000;-78
2024/02/09 03:43:37;;;;;;;;;;;;;;;7.84;100.00;98101.06;5016002;28;19922;-78
2024/02/09 03:46:03;;;;;;;;;;;;;;;7.84;100.00;98101.06;5033402;28;19927;-78
2024/02/09 03:48:28;;;;;;;;;;;;;;;7.82;100.00;98103.16;5038494;28;20373;-78
2024/02/09 03:50:53;;;;;;;;;;;;;;;7.84;100.00;98111.75;5033268;28;20124;-78
2024/02/09 03:53:19;;;;;;;;;;;;;;;7.82;100.00;98103.16;5042739;28;19943;-78
2024/02/09 03:55:44;;;;;;;;;;;;;;;7.80;100.00;98098.06;5037390;28;19925;-78
2024/02/09 03:58:09;;;;;;;;;;;;;;;7.80;100.00;98090.03;5041228;28;20004;-78
2024/02/09 04:00:34;;;;;;;;;;;;;;;7.73;100.00;98092.88;5047244;28;19921;-78
2024/02/09 04:03:00;;;;;;;;;;;;;;;7.70;100.00;98096.06;5043875;28;19921;-78
2024/02/09 04:05:25;;;;;;;;;;;;;;;7.73;100.00;98103.59;5046073;28;19932;-77
2024/02/09 04:07:51;;;;;;;;;;;;;;;7.73;100.00;98090.22;5038381;28;19921;-78
2024/02/09 04:10:16;;;;;;;;;;;;;;;7.73;100.00;98079.50;5044151;28;20310;-78
2024/02/09 04:12:42;;;;;;;;;;;;;;;7.72;100.00;98088.59;5052681;28;19925;-78
2024/02/09 04:15:08;;;;;;;;;;;;;;;7.63;100.00;98090.06;5043860;28;20399;-78
2024/02/09 04:17:33;;;;;;;;;;;;;;;7.63;100.00;98084.69;5044116;28;19925;-78
2024/02/09 04:19:58;;;;;;;;;;;;;;;7.65;100.00;98076.44;5046826;28;19982;-78
2024/02/09 04:22:23;;;;;;;;;;;;;;;7.66;100.00;98081.53;5038080;28;20369;-78
2024/02/09 04:24:50;;;;;;;;;;;;;;;7.63;100.00;98073.19;5039097;28;20407;-78
2024/02/09 04:27:17;;;;;;;;;;;;;;;7.67;100.00;98072.44;5033030;28;20336;-78
2024/02/09 04:29:42;;;;;;;;;;;;;;;7.64;100.00;98070.25;5036963;28;19924;-78
2024/02/09 04:32:07;;;;;;;;;;;;;;;7.61;100.00;98067.28;5036927;28;19921;-78
2024/02/09 04:34:32;;;;;;;;;;;;;;;7.62;100.00;98069.69;5032595;28;20350;-78
2024/02/09 04:36:59;;;;;;;;;;;;;;;7.64;100.00;98058.75;5034559;28;20387;-78
2024/02/09 04:39:25;;;;;;;;;;;;;;;7.65;100.00;98061.16;5033836;28;20039;-78
2024/02/09 04:41:50;;;;;;;;;;;;;;;7.67;100.00;98067.09;5033216;28;20381;-77
2024/02/09 04:44:15;;;;;;;;;;;;;;;7.66;100.00;98070.81;5039572;28;20430;-78
2024/02/09 04:46:42;;;;;;;;;;;;;;;7.62;100.00;98071.56;5042283;28;19933;-79
2024/02/09 04:49:08;;;;;;;;;;;;;;;7.62;100.00;98060.84;5033774;28;20349;-78
2024/02/09 04:51:34;;;;;;;;;;;;;;;7.62;100.00;98056.31;5037993;28;20051;-78
2024/02/09 04:53:59;;;;;;;;;;;;;;;7.68;100.00;98055.31;5032949;28;19963;-78
2024/02/09 04:56:25;;;;;;;;;;;;;;;7.61;100.00;98054.69;5032982;28;20392;-78
2024/02/09 04:58:51;;;;;;;;;;;;;;;7.61;100.00;98049.31;5042285;28;20033;-78
2024/02/09 05:01:29;;;;;;;;;;;;;;;7.68;100.00;98049.16;5040013;28;20373;-78
2024/02/09 05:04:01;;;;;;;;;;;;;;;7.71;100.00;98044.13;5033152;28;20366;-77
2024/02/09 05:06:26;;;;;;;;;;;;;;;7.66;100.00;98041.38;5041202;28;19921;-78
2024/02/09 05:08:54;;;;;;;;;;;;;;;7.68;100.00;98046.47;5033132;28;19979;-78
2024/02/09 05:11:22;;;;;;;;;;;;;;;7.70;100.00;98037.16;5036913;28;19925;-78
2024/02/09 05:13:48;;;;;;;;;;;;;;;7.72;100.00;98035.03;5043300;28;20008;-78
2024/02/09 05:16:13;;;;;;;;;;;;;;;7.71;100.00;98040.63;5034382;28;20397;-79
2024/02/09 05:18:38;;;;;;;;;;;;;;;7.66;100.00;98030.66;5038944;28;19928;-78
2024/02/09 05:21:04;;;;;;;;;;;;;;;7.69;100.00;98027.50;5047552;28;19920;-78
2024/02/09 05:23:29;;;;;;;;;;;;;;;7.69;100.00;98032.03;5040724;28;20008;-78
2024/02/09 05:25:54;;;;;;;;;;;;;;;7.68;100.00;98025.88;5034061;28;19943;-78
2024/02/09 05:28:20;;;;;;;;;;;;;;;7.73;100.00;98025.94;5033079;28;20008;-78
2024/02/09 05:30:45;;;;;;;;;;;;;;;7.70;100.00;98031.78;5053463;28;19928;-78
2024/02/09 05:33:10;;;;;;;;;;;;;;;7.72;100.00;98018.16;5040313;28;19932;-78
2024/02/09 05:35:37;;;;;;;;;;;;;;;7.70;100.00;98021.09;5049460;28;20655;-78
2024/02/09 05:38:03;;;;;;;;;;;;;;;7.71;100.00;98014.66;5033467;28;19953;-78
2024/02/09 05:40:29;;;;;;;;;;;;;;;7.71;100.00;98013.84;5031905;28;20416;-78
2024/02/09 05:42:54;;;;;;;;;;;;;;;7.76;100.00;98021.16;5037753;28;19925;-78
2024/02/09 05:45:19;;;;;;;;;;;;;;;7.77;100.00;98009.34;5037256;28;19975;-78
2024/02/09 05:47:44;;;;;;;;;;;;;;;7.73;100.00;98014.41;5032587;28;19929;-78
2024/02/09 05:50:10;;;;;;;;;;;;;;;7.76;100.00;98015.81;5036315;28;19975;-78
2024/02/09 05:52:35;;;;;;;;;;;;;;;7.79;100.00;98013.44;5042808;28;19960;-78
2024/02/09 05:55:00;;;;;;;;;;;;;;;7.80;100.00;97998.16;5050984;28;19925;-78
2024/02/09 05:57:26;;;;;;;;;;;;;;;7.78;100.00;98002.94;5036094;28;19921;-78
2024/02/09 05:59:52;;;;;;;;;;;;;;;7.81;100.00;98007.81;5050018;28;19932;-78
2024/02/09 06:02:17;;;;;;;;;;;;;;;7.83;100.00;97998.50;5044001;28;20289;-78
2024/02/09 06:04:42;;;;;;;;;;;;;;;7.85;100.00;97998.22;5047292;28;20327;-78
2024/02/09 06:07:08;;;;;;;;;;;;;;;7.81;100.00;98005.97;5047528;28;19954;-78
2024/02/09 06:09:37;;;;;;;;;;;;;;;7.87;100.00;98004.16;5037789;28;20781;-78
2024/02/09 06:12:02;;;;;;;;;;;;;;;7.88;100.00;98000.41;5034054;28;19921;-78
2024/02/09 06:14:27;;;;;;;;;;;;;;;7.82;100.00;97996.03;5034917;28;19931;-78
2024/02/09 06:16:55;;;;;;;;;;;;;;;7.85;100.00;97998.22;5041718;28;19921;-79
2024/02/09 06:19:23;;;;;;;;;;;;;;;7.83;100.00;97989.63;5034772;28;19976;-78
2024/02/09 06:21:48;;;;;;;;;;;;;;;7.88;100.00;97995.06;5047012;28;19996;-79
2024/02/09 06:24:13;;;;;;;;;;;;;;;7.90;100.00;97992.94;5039872;28;19941;-79
2024/02/09 06:26:39;;;;;;;;;;;;;;;7.90;100.00;97995.63;5041133;28;19964;-78
2024/02/09 06:29:04;;;;;;;;;;;;;;;7.92;100.00;98006.91;5031707;28;19975;-78
2024/02/09 06:31:29;;;;;;;;;;;;;;;7.90;100.00;97998.28;5049784;28;19964;-78
2024/02/09 06:33:55;;;;;;;;;;;;;;;7.90;100.00;98003.66;5036217;28;19964;-79
2024/02/09 06:36:21;;;;;;;;;;;;;;;7.93;100.00;98013.03;5036372;28;19921;-79
2024/02/09 06:38:47;;;;;;;;;;;;;;;7.93;100.00;97997.78;5035325;28;19990;-79
2024/02/09 06:41:12;;;;;;;;;;;;;;;7.95;100.00;98006.38;5033858;28;19925;-78
2024/02/09 06:43:38;;;;;;;;;;;;;;;7.93;100.00;98003.16;5034385;28;19921;-78
2024/02/09 06:46:03;;;;;;;;;;;;;;;7.94;100.00;98010.13;5043214;28;20003;-79
2024/02/09 06:48:30;;;;;;;;;;;;;;;7.93;100.00;98008.50;5031048;28;19987;-78
2024/02/09 06:50:56;;;;;;;;;;;;;;;7.96;100.00;98012.56;5031357;28;19936;-78
2024/02/09 06:53:22;;;;;;;;;;;;;;;7.92;100.00;98011.44;5039289;28;19925;-78
2024/02/09 06:55:47;;;;;;;;;;;;;;;7.91;100.00;98010.63;5034476;28;20400;-77
2024/02/09 06:58:13;;;;;;;;;;;;;;;7.92;100.00;98006.06;5043650;28;19921;-77
2024/02/09 07:00:38;;;;;;;;;;;;;;;7.95;100.00;98009.03;5043987;28;19928;-78
2024/02/09 07:03:06;;;;;;;;;;;;;;;7.94;100.00;98010.13;5034636;28;20434;-78
2024/02/09 07:05:34;;;;;;;;;;;;;;;7.93;100.00;98008.50;5035094;28;19921;-78
2024/02/09 07:07:59;;;;;;;;;;;;;;;7.91;100.00;98009.81;5043913;28;20436;-78
2024/02/09 07:10:24;;;;;;;;;;;;;;;7.87;100.00;98009.50;5047034;28;20099;-77
2024/02/09 07:12:51;;;;;;;;;;;;;;;7.92;100.00;98006.06;5032530;28;19921;-78
2024/02/09 07:15:19;;;;;;;;;;;;;;;7.90;100.00;98000.97;5048252;28;19920;-80
2024/02/09 07:17:44;;;;;;;;;;;;;;;7.91;100.00;97993.72;5041513;28;19921;-79
2024/02/09 07:20:18;;;;;;;;;;;;;;;7.90;100.00;98003.66;5045685;28;20301;-84
2024/02/09 07:22:43;;;;;;;;;;;;;;;7.88;100.00;97995.84;5032745;28;20416;-77
2024/02/09 07:25:09;;;;;;;;;;;;;;;7.90;100.00;97995.63;5038717;28;19924;-79
2024/02/09 07:27:34;;;;;;;;;;;;;;;7.96;100.00;97988.44;5035122;28;20316;-77
2024/02/09 07:29:59;;;;;;;;;;;;;;;7.99;100.00;97998.66;5033136;28;20023;-77
2024/02/09 07:32:24;;;;;;;;;;;;;;;7.99;100.00;98002.13;5037763;28;20011;-77
2024/02/09 07:34:51;;;;;;;;;;;;;;;8.03;100.00;97989.06;5033493;28;20016;-78
2024/02/09 07:37:16;;;;;;;;;;;;;;;8.04;100.00;98001.38;5042320;28;19984;-79
2024/02/09 07:39:41;;;;;;;;;;;;;;;8.07;100.00;98005.44;5051405;28;19925;-77
2024/02/09 07:42:09;;;;;;;;;;;;;;;8.04;100.00;98001.38;5031754;28;19921;-79
2024/02/09 07:44:37;;;;;;;;;;;;;;;8.07;100.00;98002.75;5041845;28;19925;-78
2024/02/09 07:47:06;;;;;;;;;;;;;;;8.08;100.00;98002.50;5036987;28;19928;-78
2024/02/09 07:49:31;;;;;;;;;;;;;;;8.07;100.00;97992.03;5036960;28;19920;-78
2024/02/09 07:51:58;;;;;;;;;;;;;;;8.10;100.00;98002.25;5051196;28;20012;-77
2024/02/09 07:54:23;;;;;;;;;;;;;;;8.11;100.00;98003.88;5038316;28;19921;-78
2024/02/09 07:56:51;;;;;;;;;;;;;;;8.10;100.00;98002.25;5031447;28;19928;-79
2024/02/09 07:59:17;;;;;;;;;;;;;;;8.11;100.00;97998.53;5033438;28;20327;-79
2024/02/09 08:01:42;;;;;;;;;;;;;;;8.13;100.00;97991.03;5041196;28;19920;-79
2024/02/09 08:04:07;;;;;;;;;;;;;;;8.15;100.00;98004.97;5031840;28;20087;-79
2024/02/09 08:06:33;;;;;;;;;;;;;;;8.15;100.00;98004.97;5037948;28;20019;-79
2024/02/09 08:08:59;;;;;;;;;;;;;;;8.19;100.00;98006.94;5038621;28;20028;-79
2024/02/09 08:11:24;;;;;;;;;;;;;;;8.20;100.00;98002.38;5024879;28;20253;-78
2024/02/09 08:13:50;;;;;;;;;;;;;;;8.21;100.00;98006.66;5036762;28;19926;-78
2024/02/09 08:16:21;;;;;;;;;;;;;;;8.22;100.00;98008.28;5032064;28;19921;-78
2024/02/09 08:18:47;;;;;;;;;;;;;;;8.21;100.00;97997.81;5047437;28;19929;-78
2024/02/09 08:21:12;;;;;;;;;;;;;;;8.13;100.00;98009.78;5044233;28;19928;-77
2024/02/09 08:23:39;;;;;;;;;;;;;;;8.12;100.00;98011.66;5050082;28;19921;-79
2024/02/09 08:26:04;;;;;;;;;;;;;;;8.09;100.00;97993.41;5050484;28;20376;-78
2024/02/09 08:28:29;;;;;;;;;;;;;;;8.03;100.00;98008.63;5032045;28;19921;-77
2024/02/09 08:30:55;;;;;;;;;;;;;;;8.01;100.00;98001.91;5032141;28;20389;-78
2024/02/09 08:33:27;;;;;;;;;;;;;;;8.00;100.00;98001.06;5034719;28;20011;-78
2024/02/09 08:35:52;;;;;;;;;;;;;;;8.08;100.00;98004.38;5045628;28;19928;-78
2024/02/09 08:38:18;;;;;;;;;;;;;;;8.09;100.00;98016.72;5031827;28;19960;-81
2024/02/09 08:40:44;;;;;;;;;;;;;;;8.12;100.00;98018.91;5033394;28;19955;-77
2024/02/09 08:43:10;;;;;;;;;;;;;;;8.13;100.00;98012.47;5035678;28;20509;-79
2024/02/09 08:45:36;;;;;;;;;;;;;;;8.14;100.00;98009.53;5041341;28;19988;-78
2024/02/09 08:48:01;;;;;;;;;;;;;;;8.10;100.00;98012.97;5032007;28;19920;-79
2024/02/09 08:50:27;;;;;;;;;;;;;;;8.13;100.00;98009.78;5032719;28;20015;-80
2024/02/09 08:52:53;;;;;;;;;;;;;;;8.17;100.00;98013.59;5029648;28;19975;-76
2024/02/09 08:55:18;;;;;;;;;;;;;;;8.20;100.00;98002.38;5036921;28;19928;-77
2024/02/09 08:57:43;;;;;;;;;;;;;;;8.27;100.00;98007.53;5034778;28;19984;-76
2024/02/09 09:00:08;;;;;;;;;;;;;;;8.31;100.00;98004.06;5035211;28;20303;-77
2024/02/09 09:02:34;;;;;;;;;;;;;;;8.41;100.00;97997.22;5029193;28;19986;-77
2024/02/09 09:04:59;;;;;;;;;;;;;;;8.51;100.00;98001.91;5038383;28;20424;-78
2024/02/09 09:07:24;;;;;;;;;;;;;;;8.55;100.00;98001.13;5030350;28;19925;-78
2024/02/09 09:09:49;;;;;;;;;;;;;;;8.60;100.00;98011.09;5041872;28;20011;-78
2024/02/09 09:12:14;;;;;;;;;;;;;;;8.59;100.00;98004.94;5037006;28;20070;-78
2024/02/09 09:14:40;;;;;;;;;;;;;;;8.62;100.00;98003.59;5033045;28;19921;-78
2024/02/09 09:17:05;;;;;;;;;;;;;;;8.68;100.00;97999.09;5035440;28;19917;-79
2024/02/09 09:19:31;;;;;;;;;;;;;;;8.74;100.00;98003.44;5029007;28;19925;-79
2024/02/09 09:21:56;;;;;;;;;;;;;;;8.81;100.00;98004.03;5041540;28;20443;-79
2024/02/09 09:24:22;;;;;;;;;;;;;;;8.89;100.00;98005.44;5035321;28;19953;-78
2024/02/09 09:26:47;;;;;;;;;;;;;;;8.88;100.00;98003.81;5036004;28;20337;-76
2024/02/09 09:29:13;;;;;;;;;;;;;;;8.89;100.00;98003.56;5032166;28;20469;-77
2024/02/09 09:31:38;;;;;;;;;;;;;;;8.92;100.00;97996.88;5044998;28;20273;-77
2024/02/09 09:34:03;;;;;;;;;;;;;;;8.99;100.00;98002.03;5039810;28;19928;-77
2024/02/09 09:36:33;;;;;;;;;;;;;;;9.01;100.00;98010.59;5044269;28;20056;-77
2024/02/09 09:38:58;;;;;;;;;;;;;;;9.18;100.00;98000.53;5033511;28;19928;-75
2024/02/09 09:41:23;;;;;;;;;;;;;;;9.38;100.00;98010.63;5028017;28;19975;-76
2024/02/09 09:43:49;;;;;;;;;;;;;;;9.59;100.00;98013.41;5046237;28;19936;-76
2024/02/09 09:46:15;;;;;;;;;;;;;;;9.81;100.00;98001.69;5023715;28;19925;-76
2024/02/09 09:48:40;;;;;;;;;;;;;;;9.98;100.00;98010.34;5036318;28;20007;-76
2024/02/09 09:51:06;;;;;;;;;;;;;;;9.99;100.00;98011.97;5022895;28;19922;-78
2024/02/09 09:53:37;;;;;;;;;;;;;;;9.96;100.00;98017.06;5048796;28;19921;-78
2024/02/09 09:56:02;;;;;;;;;;;;;;;9.95;100.00;98016.28;5021743;28;19944;-76
2024/02/09 09:58:27;;;;;;;;;;;;;;;10.03;100.00;98020.31;5025807;28;20270;-79
2024/02/09 10:00:52;;;;;;;;;;;;;;;10.14;100.00;98019.28;5032866;28;19917;-79
2024/02/09 10:03:18;;;;;;;;;;;;;;;10.28;100.00;98014.22;5035827;28;20011;-76
2024/02/09 10:05:44;;;;;;;;;;;;;;;10.29;100.00;98012.31;5017826;28;19921;-77
2024/02/09 10:08:10;;;;;;;;;;;;;;;10.35;100.00;98016.66;5029494;28;19925;-77
2024/02/09 10:10:37;;;;;;;;;;;;;;;10.33;100.00;98013.41;5011157;28;19928;-76
2024/02/09 10:13:11;;;;;;;;;;;;;;;10.32;100.00;98019.88;5018123;28;20357;-77
2024/02/09 10:15:37;;;;;;;;;;;;;;;10.28;100.00;98021.47;5038209;28;19921;-82
2024/02/09 10:18:17;;;;;;;;;;;;;;;10.29;100.00;98033.84;5029938;28;20273;-82
2024/02/09 10:21:03;;;;;;;;;;;;;;;10.26;100.00;98045.13;5044146;28;19921;-82
2024/02/09 10:23:28;;;;;;;;;;;;;;;10.26;100.00;98034.34;5043905;28;19925;-82
2024/02/09 10:25:55;;;;;;;;;;;;;;;10.18;100.00;98042.94;5036695;28;20083;-82
2024/02/09 10:28:38;;;;;;;;;;;;;;;10.15;100.00;98045.09;5045525;28;19921;-82
2024/02/09 10:31:04;;;;;;;;;;;;;;;10.08;100.00;98035.66;5039268;28;19921;-82
2024/02/09 10:33:30;;;;;;;;;;;;;;;10.07;100.00;98034.84;5051210;28;19971;-82
2024/02/09 10:35:55;;;;;;;;;;;;;;;10.20;100.00;98036.22;5036626;28;19925;-82
2024/02/09 10:38:22;;;;;;;;;;;;;;;10.32;100.00;98038.69;5032465;28;19928;-82
2024/02/09 10:40:47;;;;;;;;;;;;;;;10.38;100.00;98034.97;5065968;22;19927;-82
2024/02/09 10:43:30;;;;;;;;;;;;;;;10.42;100.00;98044.09;5096478;28;20299;-82
2024/02/09 10:46:08;;;;;;;;;;;;;;;10.32;100.00;98036.78;5077573;28;19990;-83
2024/02/09 10:48:42;;;;;;;;;;;;;;;10.25;100.00;98044.31;5095287;28;19920;-82
2024/02/09 10:51:35;;;;;;;;;;;;;;;10.18;100.00;98042.94;5113928;28;19995;-82
2024/02/09 10:54:23;;;;;;;;;;;;;;;10.12;100.00;98045.63;5112499;28;19920;-81
2024/02/09 10:57:06;;;;;;;;;;;;;;;10.14;100.00;98050.75;5113505;28;19970;-81
2024/02/09 10:59:38;;;;;;;;;;;;;;;10.16;100.00;98049.41;5089881;28;19974;-81
2024/02/09 11:02:04;;;;;;;;;;;;;;;10.17;100.00;98042.13;5111761;28;19923;-80
2024/02/09 11:04:51;;;;;;;;;;;;;;;10.30;100.00;98040.81;5113333;28;19920;-80
2024/02/09 11:07:16;;;;;;;;;;;;;;;10.46;100.00;98041.72;5113054;28;20019;-81
2024/02/09 11:09:43;;;;;;;;;;;;;;;10.57;100.00;98046.03;5112225;28;20051;-81
2024/02/09 11:12:12;;;;;;;;;;;;;;;10.75;100.00;98047.41;5166995;22;19927;-82
2024/02/09 11:14:37;;;;;;;;;;;;;;;10.79;100.00;98044.16;5112720;28;19928;-83
2024/02/09 11:17:04;;;;;;;;;;;;;;;10.89;100.00;98047.69;5112146;28;19923;-83
2024/02/09 11:19:39;;;;;;;;;;;;;;;10.95;100.00;98045.78;5111832;28;19919;-82
2024/02/09 11:22:05;;;;;;;;;;;;;;;10.98;100.00;98047.16;5120700;22;20006;-82
2024/02/09 11:24:36;;;;;;;;;;;;;;;10.96;100.00;98042.03;5091247;28;20357;-81
2024/02/09 11:27:23;;;;;;;;;;;;;;;10.97;100.00;98038.25;5091858;28;19926;-83
2024/02/09 11:29:57;;;;;;;;;;;;;;;10.97;100.00;98034.78;5092533;28;19920;-81
2024/02/09 11:32:29;;;;;;;;;;;;;;;10.97;100.00;98043.66;5084067;28;19920;-82
2024/02/09 11:34:57;;;;;;;;;;;;;;;10.99;100.00;98041.50;5092370;28;19927;-82
2024/02/09 11:37:23;;;;;;;;;;;;;;;10.96;100.00;98046.63;5092553;28;19927;-81
2024/02/09 11:39:48;;;;;;;;;;;;;;;11.03;100.00;98036.41;5073503;28;19920;-82
2024/02/09 11:42:17;;;;;;;;;;;;;;;11.10;100.00;98042.31;5091697;28;19927;-82
2024/02/09 11:44:48;;;;;;;;;;;;;;;11.04;100.00;98049.56;5091748;28;19920;-82
2024/02/09 11:47:30;;;;;;;;;;;;;;;11.04;100.00;98048.75;5091633;28;19924;-82
2024/02/09 11:49:55;;;;;;;;;;;;;;;11.03;100.00;98055.25;5089948;28;19908;-83
2024/02/09 11:52:32;;;;;;;;;;;;;;;10.99;100.00;98041.50;5090511;28;20502;-82
2024/02/09 11:55:06;;;;;;;;;;;;;;;11.01;100.00;98036.66;5090665;28;20032;-81
2024/02/09 11:57:38;;;;;;;;;;;;;;;11.04;100.00;98038.81;5084851;28;19946;-81
2024/02/09 12:00:04;;;;;;;;;;;;;;;10.92;100.00;98049.84;5090605;28;19931;-79
2024/02/09 12:02:31;;;;;;;;;;;;;;;10.91;100.00;98050.13;5072395;28;20302;-79
2024/02/09 12:04:56;;;;;;;;;;;;;;;11.04;100.00;98046.88;5092457;28;19927;-78
2024/02/09 12:07:22;;;;;;;;;;;;;;;11.07;100.00;98045.53;5091898;28;20129;-79
2024/02/09 12:09:49;;;;;;;;;;;;;;;11.05;100.00;98045.81;5071724;28;20295;-79
2024/02/09 12:12:14;;;;;;;;;;;;;;;11.00;100.00;98053.88;5090723;28;19920;-79
2024/02/09 12:14:52;;;;;;;;;;;;;;;11.05;100.00;98061.97;5098277;22;19932;-79
2024/02/09 12:17:17;;;;;;;;;;;;;;;11.05;100.00;98061.97;5082177;28;20299;-79
2024/02/09 12:19:43;;;;;;;;;;;;;;;11.07;100.00;98072.44;5091052;28;19920;-79
2024/02/09 12:22:08;;;;;;;;;;;;;;;11.10;100.00;98065.75;5057226;28;20091;-79
2024/02/09 12:24:36;;;;;;;;;;;;;;;11.10;100.00;98063.06;5081584;28;19926;-79
2024/02/09 12:27:13;;;;;;;;;;;;;;;11.16;100.00;98056.56;5078511;28;19920;-79
2024/02/09 12:29:39;;;;;;;;;;;;;;;11.15;100.00;98073.78;5087250;28;20360;-79
2024/02/09 12:32:04;;;;;;;;;;;;;;;11.20;100.00;98063.03;5091263;28;19928;-78
2024/02/09 12:34:30;;;;;;;;;;;;;;;11.24;100.00;98069.50;5089749;28;20014;-79
2024/02/09 12:37:01;;;;;;;;;;;;;;;11.38;100.00;98069.78;5070984;28;19920;-79
2024/02/09 12:39:26;;;;;;;;;;;;;;;11.49;100.00;98074.06;5079300;28;19920;-79
2024/02/09 12:41:58;;;;;;;;;;;;;;;11.58;100.00;98077.00;5069085;28;19920;-79
2024/02/09 12:44:27;;;;;;;;;;;;;;;11.50;100.00;98077.53;5080663;28;19966;-79
2024/02/09 12:46:55;;;;;;;;;;;;;;;11.59;100.00;98073.22;5090766;28;19999;-79
2024/02/09 12:49:20;;;;;;;;;;;;;;;11.62;100.00;98086.16;5075058;28;19956;-79
2024/02/09 12:51:47;;;;;;;;;;;;;;;11.60;100.00;98082.94;5081607;28;19970;-79
2024/02/09 12:54:12;;;;;;;;;;;;;;;11.58;100.00;98087.78;5089003;28;20202;-79
2024/02/09 12:56:38;;;;;;;;;;;;;;;11.60;100.00;98080.25;5080045;28;19973;-79
2024/02/09 12:59:04;;;;;;;;;;;;;;;11.64;100.00;98072.41;5088987;28;20003;-79
2024/02/09 13:01:29;;;;;;;;;;;;;;;11.62;100.00;98088.03;5097694;22;20019;-79
2024/02/09 13:03:54;;;;;;;;;;;;;;;11.62;100.00;98090.72;5089302;28;20376;-79
2024/02/09 13:06:19;;;;;;;;;;;;;;;11.55;100.00;98088.31;5089737;28;19921;-79
2024/02/09 13:08:47;;;;;;;;;;;;;;;11.55;100.00;98080.25;5089085;28;20019;-79
2024/02/09 13:11:24;;;;;;;;;;;;;;;11.57;100.00;98088.84;5083420;28;20023;-79
2024/02/09 13:13:49;;;;;;;;;;;;;;;11.56;100.00;98084.56;5089916;28;19924;-78
2024/02/09 13:16:26;;;;;;;;;;;;;;;11.49;100.00;98090.22;5089347;28;19920;-79
2024/02/09 13:18:52;;;;;;;;;;;;;;;11.36;100.00;98093.47;5088393;28;19920;-79
2024/02/09 13:21:20;;;;;;;;;;;;;;;11.18;100.00;98097.50;5084104;28;19966;-78
2024/02/09 13:23:46;;;;;;;;;;;;;;;11.04;100.00;98103.41;5075737;28;19997;-79
2024/02/09 13:26:15;;;;;;;;;;;;;;;10.79;100.00;98100.69;5090022;28;20383;-79
2024/02/09 13:28:40;;;;;;;;;;;;;;;10.60;100.00;98103.88;5090502;28;20384;-79
2024/02/09 13:31:14;;;;;;;;;;;;;;;10.35;100.00;98108.06;5088739;28;19928;-79
2024/02/09 13:33:49;;;;;;;;;;;;;;;10.20;100.00;98103.44;5072232;28;20329;-79
2024/02/09 13:36:14;;;;;;;;;;;;;;;9.88;100.00;98099.00;5081107;28;19924;-79
2024/02/09 13:38:42;;;;;;;;;;;;;;;9.69;100.00;98101.31;5089259;28;20384;-79
2024/02/09 13:41:08;;;;;;;;;;;;;;;9.58;100.00;98107.66;5080900;28;19927;-81
2024/02/09 13:43:42;;;;;;;;;;;;;;;9.88;100.00;98092.81;5072626;28;19924;-78
2024/02/09 13:46:08;;;;;;;;;;;;;;;10.03;100.00;98095.59;5087675;28;19920;-79
2024/02/09 13:48:33;;;;;;;;;;;;;;;9.94;100.00;98092.59;5087574;28;20368;-79
2024/02/09 13:50:59;;;;;;;;;;;;;;;9.93;100.00;98093.66;5088256;28;19927;-79
2024/02/09 13:53:26;;;;;;;;;;;;;;;10.13;100.00;98095.63;5063754;28;19927;-79
2024/02/09 13:55:52;;;;;;;;;;;;;;;10.35;100.00;98096.50;5091007;28;19924;-79
2024/02/09 13:58:17;;;;;;;;;;;;;;;10.45;100.00;98097.38;5112649;28;19924;-79
2024/02/09 14:00:43;;;;;;;;;;;;;;;10.64;100.00;98099.56;5088991;28;20058;-79
2024/02/09 14:03:08;;;;;;;;;;;;;;;10.73;100.00;98097.19;5089253;28;19920;-79
2024/02/09 14:05:33;;;;;;;;;;;;;;;10.76;100.00;98104.72;5090570;28;19931;-79
2024/02/09 14:07:59;;;;;;;;;;;;;;;10.74;100.00;98096.94;5087833;28;20291;-79
2024/02/09 14:10:26;;;;;;;;;;;;;;;10.72;100.00;98107.16;5090160;28;20327;-79
2024/02/09 14:12:53;;;;;;;;;;;;;;;10.69;100.00;98096.91;5090086;28;19974;-79
2024/02/09 14:15:18;;;;;;;;;;;;;;;10.67;100.00;98095.56;5088649;28;19925;-78
2024/02/09 14:17:43;;;;;;;;;;;;;;;10.66;100.00;98096.63;5089486;28;19943;-79
2024/02/09 14:20:09;;;;;;;;;;;;;;;10.69;100.00;98096.91;5089622;28;20048;-79
2024/02/09 14:22:34;;;;;;;;;;;;;;;10.70;100.00;98100.41;5088303;28;20015;-79
2024/02/09 14:25:00;;;;;;;;;;;;;;;10.71;100.00;98089.38;5088639;28;20330;-78
2024/02/09 14:27:25;;;;;;;;;;;;;;;10.69;100.00;98102.28;5089893;28;19927;-79
2024/02/09 14:29:52;;;;;;;;;;;;;;;10.72;100.00;98091.00;5088960;28;20352;-79